Time;durP1;ratioP1;P1;durP2;ratioP2;P2;SDS_P1;SDS_P2;PMS_P1;PMS_P2;Temp;Humidity;BMP_temperature;BMP_pressure;BME280_temperature;BME280_humidity;BME280_pressure;Samples;Min_cycle;Max_cycle;Signal;HPM_P1;HPM_P2
2023/06/29 00:01:03;;;;;;;;;44.00;35.25;;;;;25.24;46.64;100914.00;5093432;27;45531;-77
2023/06/29 00:03:31;;;;;;;;;51.50;41.50;;;;;25.25;46.61;100912.16;5093326;27;46567;-75
2023/06/29 00:05:58;;;;;;;;;54.25;40.25;;;;;25.25;46.76;100914.84;5093766;27;46145;-74
2023/06/29 00:08:28;;;;;;;;;51.50;40.25;;;;;25.25;46.36;100918.34;5094055;27;45919;-74
2023/06/29 00:17:00;;;;;;;;;57.50;45.25;;;;;25.19;46.31;100910.25;5093723;27;46275;-77
2023/06/29 00:19:26;;;;;;;;;53.50;41.50;;;;;25.21;46.25;100906.34;5094197;27;45514;-77
2023/06/29 00:21:51;;;;;;;;;54.50;44.25;;;;;25.20;46.25;100902.03;5094128;27;45731;-76
2023/06/29 00:24:16;;;;;;;;;54.75;42.25;;;;;25.13;46.32;100889.59;5093484;27;47831;-76
2023/06/29 00:30:07;;;;;;;;;54.75;44.75;;;;;25.05;46.04;100871.78;5091595;27;45895;-77
2023/06/29 00:32:32;;;;;;;;;54.75;42.00;;;;;25.13;46.27;100900.31;5093773;27;45522;-76
2023/06/29 00:34:58;;;;;;;;;49.75;40.50;;;;;24.93;46.04;100871.53;5093864;27;45562;-76
2023/06/29 00:37:24;;;;;;;;;48.75;39.50;;;;;24.93;46.21;100866.16;5093529;27;46431;-76
2023/06/29 00:39:49;;;;;;;;;50.00;40.00;;;;;24.72;46.33;100827.84;5093645;27;45576;-75
2023/06/29 00:45:36;;;;;;;;;55.50;43.75;;;;;25.02;46.12;100886.44;5093467;27;46124;-76
2023/06/29 00:48:02;;;;;;;;;128.75;108.50;;;;;24.93;46.46;100866.16;5093460;27;46061;-76
2023/06/29 00:50:28;;;;;;;;;140.75;120.50;;;;;24.80;46.37;100835.72;5093104;27;45660;-76
2023/06/29 00:52:54;;;;;;;;;113.50;96.25;;;;;25.01;46.18;100876.72;5109141;27;45539;-76
2023/06/29 00:55:24;;;;;;;;;141.75;120.00;;;;;24.93;46.46;100855.44;5091292;27;45655;-75
2023/06/29 01:01:11;;;;;;;;;142.50;129.50;;;;;25.02;46.57;100867.66;5092693;27;45688;-77
2023/06/29 01:03:40;;;;;;;;;102.75;90.75;;;;;24.86;46.26;100826.91;5093070;27;45652;-78
2023/06/29 01:06:12;;;;;;;;;107.50;97.50;;;;;24.90;46.39;100839.75;5092727;27;46767;-77
2023/06/29 01:08:45;;;;;;;;;125.50;111.75;;;;;25.05;46.38;100861.91;5091991;27;48094;-75
2023/06/29 01:11:11;;;;;;;;;116.75;105.75;;;;;25.06;46.08;100852.84;5092634;27;45753;-76
2023/06/29 01:17:01;;;;;;;;;69.25;52.50;;;;;25.10;46.42;100852.44;5096646;27;46025;-75
2023/06/29 01:19:29;;;;;;;;;65.50;52.50;;;;;25.09;46.29;100846.25;5096688;27;46109;-76
2023/06/29 01:22:23;;;;;;;;;65.00;51.75;;;;;25.02;46.29;100835.50;5096388;27;45962;-77
2023/06/29 01:24:49;;;;;;;;;76.25;60.75;;;;;25.11;46.44;100843.34;5053827;28;45737;-77
2023/06/29 01:27:15;;;;;;;;;71.75;58.00;;;;;25.01;46.32;100831.16;5053210;28;46739;-76
2023/06/29 01:29:42;;;;;;;;;66.00;51.75;;;;;24.93;46.35;100817.91;5053282;28;45960;-74
2023/06/29 01:32:10;;;;;;;;;70.50;54.75;;;;;25.02;46.33;100827.44;5036110;28;46106;-76
2023/06/29 01:34:36;;;;;;;;;72.75;56.50;;;;;25.13;46.49;100854.72;5036641;28;45650;-76
2023/06/29 01:37:13;;;;;;;;;79.00;61.25;;;;;25.12;46.55;100840.50;5053225;28;46412;-77
2023/06/29 01:39:47;;;;;;;;;71.25;57.50;;;;;25.11;46.55;100843.34;5036310;28;48482;-77
2023/06/29 01:42:13;;;;;;;;;68.50;54.50;;;;;25.15;46.59;100841.97;5053122;28;45604;-77
2023/06/29 01:44:39;;;;;;;;;71.50;54.75;;;;;24.76;46.48;100783.53;5053552;28;45680;-76
2023/06/29 01:47:08;;;;;;;;;66.25;53.50;;;;;25.15;46.40;100848.16;5035588;28;47196;-77
2023/06/29 01:49:35;;;;;;;;;67.25;52.50;;;;;25.16;46.54;100848.94;5053044;28;46218;-76
2023/06/29 01:52:01;;;;;;;;;62.00;49.00;;;;;25.02;46.46;100824.75;5052875;28;45659;-75
2023/06/29 01:54:26;;;;;;;;;63.25;49.00;;;;;25.12;46.34;100843.16;5052935;28;45942;-76
2023/06/29 01:56:52;;;;;;;;;64.25;50.00;;;;;25.12;46.55;100843.16;5052826;28;45772;-77
2023/06/29 02:02:41;;;;;;;;;62.75;49.50;;;;;24.80;46.84;100792.84;5090782;27;45960;-77
2023/06/29 02:05:07;;;;;;;;;64.75;49.50;;;;;25.06;46.48;100838.59;5096386;27;45560;-75
2023/06/29 02:07:32;;;;;;;;;61.00;47.00;;;;;25.04;46.60;100833.44;5095983;27;46490;-76
2023/06/29 02:09:59;;;;;;;;;62.00;48.50;;;;;25.03;46.59;100829.09;5095614;27;45686;-76
2023/06/29 02:12:24;;;;;;;;;65.50;51.25;;;;;24.98;46.81;100820.00;5095610;27;45627;-74
2023/06/29 02:18:11;;;;;;;;;60.25;47.75;;;;;25.00;46.50;100826.81;5095532;27;46073;-77
2023/06/29 02:20:36;;;;;;;;;58.25;46.50;;;;;25.02;46.62;100826.63;5095526;27;46166;-77
2023/06/29 02:23:02;;;;;;;;;58.25;46.50;;;;;25.02;46.79;100821.25;5094703;27;45650;-76
2023/06/29 02:25:27;;;;;;;;;54.50;45.25;;;;;24.96;46.43;100808.63;5095331;27;45552;-76
2023/06/29 02:27:52;;;;;;;;;59.75;46.50;;;;;25.02;46.61;100816.72;5095632;27;46892;-77
2023/06/29 02:30:18;;;;;;;;;58.25;45.75;;;;;25.04;46.81;100819.22;5095111;27;45789;-75
2023/06/29 02:32:43;;;;;;;;;52.75;43.50;;;;;25.03;46.50;100817.56;5095284;27;45493;-78
2023/06/29 02:35:09;;;;;;;;;60.75;47.25;;;;;25.03;46.55;100823.75;5095640;27;45596;-77
2023/06/29 02:37:34;;;;;;;;;57.50;46.00;;;;;25.01;46.37;100811.53;5095190;27;47820;-76
2023/06/29 02:39:59;;;;;;;;;57.00;45.25;;;;;25.01;46.44;100803.50;5094785;27;45940;-76
2023/06/29 02:42:25;;;;;;;;;59.00;45.75;;;;;25.02;46.58;100805.16;5094130;27;45645;-77
2023/06/29 02:48:12;;;;;;;;;52.25;42.75;;;;;25.05;46.68;100808.25;5095081;27;46133;-76
2023/06/29 02:50:37;;;;;;;;;56.00;43.75;;;;;25.05;46.51;100802.06;5095043;27;45856;-76
2023/06/29 02:53:02;;;;;;;;;54.25;43.25;;;;;25.05;46.61;100812.78;5094859;27;45779;-75
2023/06/29 02:55:30;;;;;;;;;54.25;44.00;;;;;25.00;46.28;100796.47;5095145;27;45696;-77
2023/06/29 02:57:55;;;;;;;;;48.50;37.75;;;;;25.03;46.42;100801.47;5093341;27;47442;-74
2023/06/29 03:03:42;;;;;;;;;49.00;38.50;;;;;25.01;46.14;100804.34;5094810;27;45847;-76
2023/06/29 03:06:08;;;;;;;;;50.50;40.25;;;;;25.03;46.38;100810.34;5094532;27;45815;-77
2023/06/29 03:08:33;;;;;;;;;46.75;38.00;;;;;25.04;46.59;100811.16;5094543;27;47296;-76
2023/06/29 03:10:58;;;;;;;;;50.25;37.75;;;;;24.94;45.91;100795.41;5094260;27;45669;-75
2023/06/29 03:13:24;;;;;;;;;50.25;38.50;;;;;25.05;46.25;100802.06;5094299;27;45584;-73
2023/06/29 03:15:50;;;;;;;;;40.25;33.50;;;;;25.04;46.14;100797.75;5094295;27;45847;-76
2023/06/29 03:18:15;;;;;;;;;47.00;38.50;;;;;25.06;46.13;100801.88;5094090;27;46839;-77
2023/06/29 03:20:41;;;;;;;;;50.50;37.00;;;;;25.05;46.23;100802.06;5094193;27;46322;-74
2023/06/29 03:23:06;;;;;;;;;46.75;38.25;;;;;25.08;46.19;100797.16;5092322;27;45721;-76
2023/06/29 03:25:31;;;;;;;;;46.25;39.00;;;;;25.04;46.12;100798.59;5094627;27;45644;-76
2023/06/29 03:27:57;;;;;;;;;62.50;46.50;;;;;25.07;46.69;100803.53;5093367;27;45559;-76
2023/06/29 03:33:58;;;;;;;;;61.50;46.75;;;;;25.05;46.46;100802.06;5084928;27;45694;-75
2023/06/29 03:36:24;;;;;;;;;60.00;46.75;;;;;24.95;46.67;100788.19;5092920;27;45891;-74
2023/06/29 03:38:49;;;;;;;;;60.50;47.50;;;;;24.81;46.60;100768.53;5094115;27;46324;-76
2023/06/29 03:41:15;;;;;;;;;55.50;44.00;;;;;24.81;46.74;100765.84;5093847;27;45723;-74
2023/06/29 03:43:40;;;;;;;;;58.50;45.50;;;;;24.92;46.82;100777.88;5092833;27;45622;-76
2023/06/29 03:49:27;;;;;;;;;62.50;48.25;;;;;24.98;46.63;100795.88;5093624;27;46118;-76
2023/06/29 03:51:53;;;;;;;;;56.25;45.25;;;;;24.94;47.12;100794.63;5093506;27;46119;-77
2023/06/29 03:54:18;;;;;;;;;54.50;42.75;;;;;24.93;46.83;100793.78;5092722;27;45948;-77
2023/06/29 03:56:43;;;;;;;;;57.50;44.25;;;;;24.97;46.77;100803.06;5093983;27;45795;-77
2023/06/29 03:59:09;;;;;;;;;63.00;49.25;;;;;24.97;47.25;100800.41;5093852;27;46589;-76
2023/06/29 04:01:34;;;;;;;;;56.50;46.00;;;;;24.97;47.54;100800.41;5093170;27;47042;-76
2023/06/29 04:04:00;;;;;;;;;63.75;49.00;;;;;24.89;47.46;100786.31;5093559;27;45785;-75
2023/06/29 04:06:25;;;;;;;;;60.25;45.00;;;;;24.85;47.54;100785.03;5093875;27;45699;-77
2023/06/29 04:08:50;;;;;;;;;61.00;47.00;;;;;24.86;47.42;100787.50;5092422;27;46215;-76
2023/06/29 04:11:16;;;;;;;;;58.75;45.75;;;;;24.79;47.53;100783.13;5090908;27;46199;-78
2023/06/29 04:13:41;;;;;;;;;61.75;48.00;;;;;24.80;48.05;100785.63;5091864;27;45682;-74
2023/06/29 04:19:28;;;;;;;;;59.00;45.00;;;;;24.60;48.51;100766.75;5091157;27;45702;-75
2023/06/29 04:21:53;;;;;;;;;60.00;48.00;;;;;24.46;48.23;100742.72;5090977;27;45948;-74
2023/06/29 04:24:19;;;;;;;;;62.25;48.50;;;;;24.66;48.66;100781.22;5091473;27;45516;-75
2023/06/29 04:26:44;;;;;;;;;63.25;49.50;;;;;24.62;48.50;100770.03;5091587;27;45535;-76
2023/06/29 04:29:09;;;;;;;;;59.50;46.75;;;;;24.62;48.80;100775.41;5091244;27;45553;-76
2023/06/29 04:35:01;;;;;;;;;12.00;8.00;;;;;24.56;49.29;100765.47;5078999;27;45815;-77
2023/06/29 04:37:35;;;;;;;;;63.75;49.00;;;;;24.58;49.54;100779.50;5091052;27;45783;-77
2023/06/29 04:40:01;;;;;;;;;57.75;46.25;;;;;24.51;49.61;100756.34;5090535;27;47494;-78
2023/06/29 04:42:43;;;;;;;;;61.50;48.75;;;;;24.57;49.80;100760.94;5091362;27;46369;-77
2023/06/29 04:45:12;;;;;;;;;63.25;49.75;;;;;24.42;49.84;100754.84;5106739;27;45646;-76
2023/06/29 04:47:40;;;;;;;;;59.50;46.75;;;;;24.51;49.73;100767.91;5094162;27;45829;-77
2023/06/29 04:50:11;;;;;;;;;57.25;45.25;;;;;24.43;49.91;100761.88;5093842;27;47401;-76
2023/06/29 04:52:37;;;;;;;;;61.75;47.25;;;;;24.43;49.69;100761.88;5094217;27;46364;-73
2023/06/29 04:55:06;;;;;;;;;61.50;47.25;;;;;24.40;49.95;100756.94;5093836;27;45655;-72
2023/06/29 04:57:32;;;;;;;;;57.25;45.25;;;;;24.54;49.89;100778.25;5096446;27;45882;-74
2023/06/29 04:59:57;;;;;;;;;56.50;43.50;;;;;24.55;50.18;100779.91;5096273;27;46617;-73
2023/06/29 05:02:23;;;;;;;;;57.00;45.00;;;;;24.51;50.30;100777.78;5095949;27;46112;-75
2023/06/29 05:04:49;;;;;;;;;58.25;43.75;;;;;24.46;50.60;100769.50;5096468;27;45620;-73
2023/06/29 05:07:15;;;;;;;;;57.25;42.75;;;;;24.55;50.55;100790.63;5096493;27;45929;-74
2023/06/29 05:09:40;;;;;;;;;47.25;33.50;;;;;24.43;51.00;100765.38;5096356;27;46789;-73
2023/06/29 05:12:07;;;;;;;;;55.25;41.00;;;;;24.55;51.17;100784.44;5096250;27;45784;-74
2023/06/29 05:14:33;;;;;;;;;59.00;46.25;;;;;24.51;51.29;100777.78;5096690;27;45951;-74
2023/06/29 05:20:20;;;;;;;;;56.50;41.50;;;;;24.39;52.26;100774.00;5096412;27;45725;-75
2023/06/29 05:22:45;;;;;;;;;52.00;41.25;;;;;24.40;52.38;100779.16;5094936;27;47335;-74
2023/06/29 05:25:11;;;;;;;;;54.50;42.25;;;;;24.33;52.50;100777.47;5096363;27;45590;-73
2023/06/29 05:27:37;;;;;;;;;47.50;38.50;;;;;24.25;52.77;100776.56;5094621;27;45999;-74
2023/06/29 05:30:03;;;;;;;;;50.25;40.25;;;;;24.17;52.74;100771.38;5096139;27;47322;-75
2023/06/29 05:35:50;;;;;;;;;46.25;36.50;;;;;24.21;52.73;100787.88;5087374;27;45772;-74
2023/06/29 05:38:15;;;;;;;;;45.25;37.75;;;;;23.96;53.34;100751.78;5096378;27;45811;-74
2023/06/29 05:40:41;;;;;;;;;49.75;39.00;;;;;24.07;52.93;100770.03;5077571;27;47143;-74
2023/06/29 05:43:06;;;;;;;;;45.00;35.25;;;;;24.03;52.85;100766.03;5095287;27;46329;-74
2023/06/29 05:51:38;;;;;;;;;39.25;31.75;;;;;24.14;53.46;100778.91;5095688;27;45869;-73
2023/06/29 05:54:07;;;;;;;;;34.75;32.50;;;;;24.12;54.11;100789.84;5095827;27;46463;-73
2023/06/29 05:56:35;;;;;;;;;42.75;35.25;;;;;24.05;53.52;100772.03;5096003;27;45769;-74
2023/06/29 05:59:00;;;;;;;;;41.50;34.00;;;;;23.82;53.72;100738.28;5093487;27;46096;-75
2023/06/29 06:01:26;;;;;;;;;35.50;31.50;;;;;23.84;54.02;100744.28;5111263;27;48248;-73
2023/06/29 06:03:51;;;;;;;;;37.00;32.00;;;;;23.91;53.40;100746.19;5095782;27;45629;-76
2023/06/29 06:06:17;;;;;;;;;38.25;33.75;;;;;24.11;53.45;100779.31;5095718;27;45755;-74
2023/06/29 06:08:42;;;;;;;;;34.00;31.00;;;;;23.85;54.21;100742.44;5095396;27;45923;-75
2023/06/29 06:11:07;;;;;;;;;41.50;34.75;;;;;23.89;53.81;100743.69;5111099;27;46564;-72
2023/06/29 06:13:33;;;;;;;;;39.50;33.25;;;;;23.90;54.34;100748.03;5095298;27;45667;-72
2023/06/29 06:15:58;;;;;;;;;35.50;30.50;;;;;24.08;53.74;100783.19;5092166;27;45503;-74
2023/06/29 06:18:24;;;;;;;;;42.00;35.75;;;;;24.16;54.08;100782.25;5095814;27;45747;-73
2023/06/29 06:20:49;;;;;;;;;36.75;32.50;;;;;24.16;54.20;100783.06;5095138;27;46574;-75
2023/06/29 06:23:14;;;;;;;;;45.75;34.75;;;;;24.17;54.06;100781.22;5095600;27;45984;-75
2023/06/29 06:25:40;;;;;;;;;38.25;32.50;;;;;24.07;54.01;100746.75;5095476;27;45627;-73
2023/06/29 06:28:05;;;;;;;;;42.75;32.50;;;;;24.20;54.22;100776.31;5095570;27;45782;-75
2023/06/29 06:30:30;;;;;;;;;37.50;31.50;;;;;24.05;54.16;100751.47;5094657;27;47339;-72
2023/06/29 06:36:18;;;;;;;;;38.25;32.75;;;;;24.24;54.07;100768.72;5089641;27;45576;-76
2023/06/29 06:38:43;;;;;;;;;39.75;30.75;;;;;24.25;54.45;100778.41;5095138;27;45535;-74
2023/06/29 06:41:09;;;;;;;;;43.25;33.75;;;;;24.25;54.63;100779.25;5076101;27;47492;-74
2023/06/29 06:43:35;;;;;;;;;43.25;34.75;;;;;24.27;54.43;100786.28;5094846;27;46645;-73
2023/06/29 06:46:00;;;;;;;;;44.25;36.00;;;;;24.23;54.32;100772.44;5094489;27;45568;-74
2023/06/29 06:51:48;;;;;;;;;37.75;33.75;;;;;24.20;54.69;100779.00;5094143;27;45566;-75
2023/06/29 06:54:13;;;;;;;;;37.25;32.75;;;;;24.24;54.74;100774.09;5094791;27;46261;-74
2023/06/29 06:56:39;;;;;;;;;41.75;35.00;;;;;24.09;54.74;100763.44;5094837;27;45614;-74
2023/06/29 06:59:04;;;;;;;;;40.25;34.75;;;;;24.18;54.79;100764.19;5094751;27;45544;-74
2023/06/29 07:01:30;;;;;;;;;44.50;32.75;;;;;24.27;54.77;100780.91;5094542;27;47272;-74
2023/06/29 07:07:17;;;;;;;;;36.25;32.50;;;;;24.28;55.47;100774.53;5094582;27;45517;-75
2023/06/29 07:09:43;;;;;;;;;38.50;34.00;;;;;24.29;54.89;100773.53;5093886;27;45809;-74
2023/06/29 07:12:09;;;;;;;;;38.75;32.25;;;;;24.29;54.66;100782.38;5094200;27;47476;-75
2023/06/29 07:14:35;;;;;;;;;37.50;31.50;;;;;24.25;55.05;100767.72;5094259;27;46930;-72
2023/06/29 07:17:00;;;;;;;;;41.25;32.75;;;;;24.31;55.21;100771.47;5094053;27;45585;-75
2023/06/29 07:19:26;;;;;;;;;39.00;30.25;;;;;24.32;54.95;100773.13;5094161;27;45656;-74
2023/06/29 07:21:52;;;;;;;;;37.00;30.25;;;;;24.27;55.14;100768.34;5094192;27;46730;-74
2023/06/29 07:24:23;;;;;;;;;42.00;33.50;;;;;24.32;54.85;100768.59;5092731;27;46236;-74
2023/06/29 07:26:49;;;;;;;;;38.50;32.25;;;;;24.35;54.85;100770.88;5094086;27;45801;-74
2023/06/29 07:29:15;;;;;;;;;39.50;33.75;;;;;24.38;54.61;100778.53;5094333;27;45768;-74
2023/06/29 07:31:40;;;;;;;;;41.00;33.00;;;;;24.41;54.59;100782.66;5109505;27;48093;-74
2023/06/29 07:37:27;;;;;;;;;34.25;30.25;;;;;24.42;54.57;100776.28;5082819;27;45888;-75
2023/06/29 07:39:52;;;;;;;;;42.75;35.00;;;;;24.43;54.66;100765.38;5094356;27;45778;-73
2023/06/29 07:42:18;;;;;;;;;40.25;32.75;;;;;24.44;54.77;100769.72;5093976;27;47353;-73
2023/06/29 07:44:43;;;;;;;;;41.25;34.50;;;;;24.47;54.63;100769.31;5094146;27;46271;-73
2023/06/29 07:47:08;;;;;;;;;36.50;31.00;;;;;24.49;54.80;100769.13;5093860;27;45556;-72
2023/06/29 07:49:34;;;;;;;;;38.00;30.25;;;;;24.49;54.67;100763.78;5094490;27;45869;-75
2023/06/29 07:51:59;;;;;;;;;44.25;31.75;;;;;24.50;54.61;100760.09;5094925;27;45852;-76
2023/06/29 07:54:25;;;;;;;;;41.75;33.25;;;;;24.38;54.56;100750.91;5094766;27;46115;-74
2023/06/29 07:56:50;;;;;;;;;31.75;29.25;;;;;24.54;54.52;100764.03;5094783;27;46124;-75
2023/06/29 07:59:15;;;;;;;;;36.75;31.50;;;;;24.55;54.24;100761.16;5093228;27;45971;-73
2023/06/29 08:01:41;;;;;;;;;44.00;33.25;;;;;24.53;54.76;100751.63;5093884;27;46358;-73
2023/06/29 08:07:27;;;;;;;;;35.00;30.75;;;;;24.66;54.04;100759.78;5093836;27;45573;-73
2023/06/29 08:09:53;;;;;;;;;42.50;32.75;;;;;24.70;54.55;100754.84;5093844;27;45770;-76
2023/06/29 08:12:18;;;;;;;;;36.00;31.25;;;;;24.68;54.08;100742.47;5093785;27;45528;-73
2023/06/29 08:14:44;;;;;;;;;38.25;31.50;;;;;24.69;54.15;100740.59;5092618;27;47559;-74
2023/06/29 08:17:09;;;;;;;;;42.25;32.50;;;;;24.79;54.16;100746.44;5092605;27;45985;-75
2023/06/29 08:22:56;;;;;;;;;30.25;27.75;;;;;24.81;54.16;100743.56;5093671;27;45679;-74
2023/06/29 08:25:22;;;;;;;;;35.00;30.25;;;;;24.84;53.97;100746.66;5091724;27;46071;-76
2023/06/29 08:27:49;;;;;;;;;38.00;29.25;;;;;24.85;53.73;100734.91;5091292;27;45736;-74
2023/06/29 08:30:15;;;;;;;;;36.75;31.25;;;;;24.97;53.80;100749.44;5093142;27;45544;-76
2023/06/29 08:32:43;;;;;;;;;39.00;32.00;;;;;25.01;53.71;100758.75;5092364;27;47543;-74
2023/06/29 08:35:08;;;;;;;;;39.25;33.75;;;;;25.07;53.79;100757.94;5092348;27;46436;-76
2023/06/29 08:37:34;;;;;;;;;37.25;32.25;;;;;25.12;53.34;100756.53;5092071;27;45619;-73
2023/06/29 08:39:59;;;;;;;;;38.75;33.00;;;;;25.15;53.34;100750.78;5092678;27;45683;-74
2023/06/29 08:42:25;;;;;;;;;36.75;32.25;;;;;25.17;53.33;100749.53;5092190;27;46333;-74
2023/06/29 08:44:50;;;;;;;;;38.00;32.25;;;;;25.24;52.90;100752.25;5092203;27;46835;-74
2023/06/29 08:47:16;;;;;;;;;38.50;31.50;;;;;25.20;53.24;100749.16;5092012;27;45532;-75
2023/06/29 08:53:03;;;;;;;;;34.75;32.75;;;;;25.21;52.62;100736.56;5091892;27;46028;-72
2023/06/29 08:55:29;;;;;;;;;38.25;31.50;;;;;25.23;52.59;100738.00;5092607;27;45725;-74
2023/06/29 08:57:54;;;;;;;;;44.00;32.50;;;;;25.25;52.27;100732.44;5108399;27;45840;-74
2023/06/29 09:00:22;;;;;;;;;32.75;30.50;;;;;25.29;52.32;100739.88;5092640;27;45711;-74
2023/06/29 09:02:49;;;;;;;;;36.25;31.75;;;;;25.35;52.62;100755.19;5092389;27;45791;-73
2023/06/29 09:08:37;;;;;;;;;35.50;32.25;;;;;25.29;52.95;100739.06;5092426;27;45492;-76
2023/06/29 09:11:03;;;;;;;;;37.75;32.50;;;;;25.28;52.75;100740.06;5092817;27;45760;-75
2023/06/29 09:13:30;;;;;;;;;39.00;33.50;;;;;25.24;52.76;100736.97;5092819;27;46186;-74
2023/06/29 09:16:00;;;;;;;;;42.25;33.75;;;;;25.21;52.52;100737.38;5091817;27;47175;-73
2023/06/29 09:18:25;;;;;;;;;34.50;30.25;;;;;25.25;52.41;100741.31;5092417;27;45803;-74
2023/06/29 09:20:55;;;;;;;;;43.00;33.25;;;;;25.27;52.67;100746.47;5092633;27;45515;-75
2023/06/29 09:23:21;;;;;;;;;45.25;34.00;;;;;25.25;52.22;100740.50;5092660;27;46435;-74
2023/06/29 09:25:49;;;;;;;;;47.25;35.00;;;;;25.29;52.33;100744.41;5092037;27;46420;-74
2023/06/29 09:28:15;;;;;;;;;44.25;33.75;;;;;25.34;52.25;100750.00;5092540;27;45866;-75
2023/06/29 09:30:41;;;;;;;;;38.75;32.50;;;;;25.37;52.22;100738.88;5108161;27;45665;-77
2023/06/29 09:33:07;;;;;;;;;39.00;32.75;;;;;25.42;51.91;100744.47;5093515;27;47278;-74
2023/06/29 09:38:55;;;;;;;;;41.50;33.25;;;;;25.53;51.82;100743.06;5084322;27;45880;-76
2023/06/29 09:41:21;;;;;;;;;37.50;33.00;;;;;25.56;52.06;100740.81;5095650;27;45721;-76
2023/06/29 09:43:49;;;;;;;;;43.25;33.00;;;;;25.61;51.18;100748.25;5095323;27;45757;-75
2023/06/29 09:46:14;;;;;;;;;39.00;33.25;;;;;25.66;51.23;100757.34;5111268;27;46266;-74
2023/06/29 09:48:48;;;;;;;;;33.75;31.25;;;;;25.62;50.67;100756.09;5095396;27;45733;-75
2023/06/29 09:51:20;;;;;;;;;44.75;35.25;;;;;25.65;50.88;100757.53;5095212;27;45760;-73
2023/06/29 09:53:46;;;;;;;;;35.75;30.50;;;;;25.64;50.47;100758.59;5095792;27;46781;-74
2023/06/29 09:56:13;;;;;;;;;34.50;30.25;;;;;25.60;50.99;100746.59;5095536;27;45978;-73
2023/06/29 09:58:39;;;;;;;;;36.75;31.75;;;;;25.62;50.22;100758.78;5095363;27;45936;-74
2023/06/29 10:01:04;;;;;;;;;34.00;29.75;;;;;25.55;50.35;100744.47;5094982;27;45835;-74
2023/06/29 10:03:31;;;;;;;;;36.00;30.25;;;;;25.60;50.28;100750.09;5095331;27;46511;-74
2023/06/29 10:09:21;;;;;;;;;37.00;30.25;;;;;25.66;50.35;100754.66;5095154;27;45791;-73
2023/06/29 10:11:53;;;;;;;;;29.50;28.75;;;;;25.69;49.96;100758.81;5095132;27;45693;-75
2023/06/29 10:14:20;;;;;;;;;34.25;30.00;;;;;25.71;49.48;100762.09;5095347;27;46379;-74
2023/06/29 10:16:50;;;;;;;;;37.00;30.50;;;;;25.76;49.91;100755.09;5095443;27;46207;-74
2023/06/29 10:19:20;;;;;;;;;38.00;33.00;;;;;25.84;49.66;100762.13;5094955;27;45489;-73
2023/06/29 10:21:52;;;;;;;;;36.25;30.50;;;;;25.87;49.53;100759.84;5095361;27;45674;-73
2023/06/29 10:24:24;;;;;;;;;32.75;29.75;;;;;25.89;49.68;100757.81;5094999;27;46057;-73
2023/06/29 10:26:50;;;;;;;;;33.50;30.75;;;;;25.86;49.48;100752.81;5094762;27;47108;-74
2023/06/29 10:29:16;;;;;;;;;40.25;31.25;;;;;25.90;49.86;100751.41;5095199;27;45574;-75
2023/06/29 10:31:47;;;;;;;;;33.00;29.25;;;;;25.96;49.32;100762.34;5094918;27;45741;-74
2023/06/29 10:34:13;;;;;;;;;30.25;27.75;;;;;25.97;49.27;100761.28;5095059;27;46548;-74
2023/06/29 10:36:46;;;;;;;;;35.00;28.00;;;;;25.97;49.36;100756.75;5094383;27;46067;-74
2023/06/29 10:39:37;;;;;;;;;32.25;27.25;;;;;25.98;49.34;100765.63;5094641;27;45662;-75
2023/06/29 10:42:11;;;;;;;;;29.50;26.75;;;;;25.91;49.73;100744.97;5088866;27;45619;-74
2023/06/29 10:44:37;;;;;;;;;38.00;33.00;;;;;25.87;49.40;100741.06;5093548;27;46621;-75
2023/06/29 10:47:03;;;;;;;;;35.25;31.25;;;;;25.81;49.52;100743.72;5094513;27;46387;-75
2023/06/29 10:49:28;;;;;;;;;37.00;32.25;;;;;25.80;48.93;100742.09;5094916;27;45551;-76
2023/06/29 10:52:05;;;;;;;;;31.50;28.25;;;;;25.77;49.15;100748.69;5094421;27;45813;-75
2023/06/29 10:54:30;;;;;;;;;38.25;32.25;;;;;25.72;49.39;100739.59;5094613;27;46235;-74
2023/06/29 10:57:01;;;;;;;;;38.75;32.50;;;;;25.69;49.08;100727.44;5094050;27;46371;-73
2023/06/29 10:59:29;;;;;;;;;38.00;29.75;;;;;25.69;49.52;100735.47;5094082;27;45734;-74
2023/06/29 11:01:55;;;;;;;;;45.00;35.00;;;;;25.72;49.40;100729.69;5094156;27;45759;-74
2023/06/29 11:04:21;;;;;;;;;42.00;32.75;;;;;25.72;49.52;100724.31;5094499;27;46380;-74
2023/06/29 11:10:10;;;;;;;;;44.50;33.75;;;;;25.77;48.51;100724.53;5093749;27;45992;-73
2023/06/29 11:12:37;;;;;;;;;45.00;35.25;;;;;25.82;48.05;100732.78;5094774;27;45737;-74
2023/06/29 11:15:05;;;;;;;;;41.00;36.00;;;;;25.85;47.97;100735.09;5094065;27;46056;-73
2023/06/29 11:17:30;;;;;;;;;42.50;35.25;;;;;25.90;47.84;100727.25;5094009;27;47389;-74
2023/06/29 11:19:56;;;;;;;;;41.50;33.75;;;;;25.95;47.36;100734.66;5094121;27;45611;-74
2023/06/29 11:22:21;;;;;;;;;39.75;34.75;;;;;26.00;47.28;100718.75;5093997;27;45937;-73
2023/06/29 11:24:46;;;;;;;;;41.50;35.50;;;;;26.05;46.80;100721.66;5094118;27;47293;-74
2023/06/29 11:27:16;;;;;;;;;41.75;35.00;;;;;26.12;47.49;100718.97;5092499;27;46977;-74
2023/06/29 11:29:42;;;;;;;;;39.50;33.25;;;;;26.14;46.83;100727.63;5094093;27;45683;-74
2023/06/29 11:32:12;;;;;;;;;46.25;35.25;;;;;26.15;47.19;100721.22;5093511;27;45658;-73
2023/06/29 11:34:38;;;;;;;;;46.25;37.75;;;;;26.17;47.16;100720.00;5093694;27;46873;-72
2023/06/29 11:40:25;;;;;;;;;39.50;33.50;;;;;26.14;47.00;100715.03;5082229;27;45869;-73
2023/06/29 11:42:51;;;;;;;;;43.25;35.50;;;;;26.17;47.39;100720.00;5093638;27;45834;-73
2023/06/29 11:45:17;;;;;;;;;34.25;32.00;;;;;26.14;47.27;100724.94;5091795;27;46825;-73
2023/06/29 11:47:45;;;;;;;;;44.25;36.00;;;;;26.11;47.24;100722.69;5093302;27;46102;-73
2023/06/29 11:50:11;;;;;;;;;47.50;38.75;;;;;26.06;47.14;100722.47;5093086;27;45629;-73
2023/06/29 11:52:39;;;;;;;;;46.75;36.75;;;;;26.01;47.65;100717.72;5093928;27;45665;-74
2023/06/29 11:55:08;;;;;;;;;49.50;36.75;;;;;25.95;47.43;100721.25;5092406;27;45715;-73
2023/06/29 11:57:35;;;;;;;;;45.00;35.25;;;;;25.98;47.23;100723.50;5093039;27;46235;-73
2023/06/29 12:00:02;;;;;;;;;41.50;34.00;;;;;25.96;47.13;100728.28;5093320;27;45876;-74
2023/06/29 12:02:27;;;;;;;;;40.25;34.50;;;;;25.95;46.95;100713.19;5093749;27;45604;-73
2023/06/29 12:05:03;;;;;;;;;44.00;36.00;;;;;25.91;46.90;100702.00;5093484;27;46744;-73
2023/06/29 12:10:50;;;;;;;;;42.00;34.00;;;;;26.01;47.04;100716.91;5093199;27;45761;-75
2023/06/29 12:13:15;;;;;;;;;37.50;33.50;;;;;26.01;46.90;100698.94;5093986;27;45609;-75
2023/06/29 12:15:44;;;;;;;;;41.50;35.50;;;;;26.02;46.83;100713.19;5092924;27;45598;-74
2023/06/29 12:18:14;;;;;;;;;38.25;32.75;;;;;26.03;45.72;100707.59;5093437;27;46161;-73
2023/06/29 12:20:45;;;;;;;;;42.75;33.75;;;;;26.04;45.23;100720.00;5093199;27;45718;-73
2023/06/29 12:23:13;;;;;;;;;38.00;31.25;;;;;26.03;45.40;100704.06;5093686;27;45789;-73
2023/06/29 12:25:43;;;;;;;;;39.00;32.25;;;;;26.07;45.56;100697.28;5092958;27;46504;-74
2023/06/29 12:28:08;;;;;;;;;36.75;32.00;;;;;26.11;45.16;100696.66;5093417;27;46168;-73
2023/06/29 12:30:34;;;;;;;;;34.50;31.50;;;;;26.19;45.01;100690.22;5093079;27;45648;-73
2023/06/29 12:33:00;;;;;;;;;37.50;32.75;;;;;26.25;45.24;100686.72;5092945;27;45664;-74
2023/06/29 12:35:25;;;;;;;;;37.75;32.75;;;;;26.29;45.30;100683.41;5092881;27;46787;-73
2023/06/29 12:41:12;;;;;;;;;39.50;32.00;;;;;26.45;45.07;100692.88;5084460;27;46334;-73
2023/06/29 12:43:37;;;;;;;;;37.75;32.50;;;;;26.49;44.21;100678.00;5093322;27;45767;-73
2023/06/29 12:46:03;;;;;;;;;37.00;31.50;;;;;26.58;44.30;100686.66;5093021;27;46288;-74
2023/06/29 12:48:28;;;;;;;;;33.75;30.75;;;;;26.64;44.13;100694.72;5092579;27;47104;-74
2023/06/29 12:50:59;;;;;;;;;35.75;30.25;;;;;26.72;44.44;100678.34;5092357;27;45639;-73
2023/06/29 12:53:27;;;;;;;;;42.75;33.50;;;;;26.76;43.68;100677.91;5092789;27;45520;-75